createdAt,value
2022-10-04T00:01:52.955Z,55.37
2022-10-04T00:04:43.872Z,55.54
2022-10-04T00:07:13.931Z,56.25
2022-10-04T00:09:47.645Z,57.12
2022-10-04T00:12:23.358Z,56.79
2022-10-04T00:14:55.448Z,56.09
2022-10-04T00:17:27.834Z,56.40
2022-10-04T00:20:03.583Z,56.35
2022-10-04T00:22:33.628Z,56.23
2022-10-04T00:25:08.961Z,56.32
2022-10-04T00:27:38.996Z,56.04
2022-10-04T00:30:23.625Z,55.90
2022-10-04T00:33:12.730Z,56.19
2022-10-04T00:35:45.435Z,55.86
2022-10-04T00:38:17.994Z,56.29
2022-10-04T00:40:55.901Z,55.91
2022-10-04T00:43:48.307Z,56.36
2022-10-04T00:46:24.621Z,56.29
2022-10-04T00:49:12.738Z,56.69
2022-10-04T00:51:51.084Z,56.17
2022-10-04T00:54:50.727Z,56.52
2022-10-04T00:57:26.729Z,56.40
2022-10-04T01:00:00.325Z,56.25
2022-10-04T01:02:46.928Z,55.95
2022-10-04T01:05:21.478Z,55.85
2022-10-04T01:08:10.789Z,55.73
2022-10-04T01:10:57.323Z,56.23
2022-10-04T01:13:51.439Z,56.27
2022-10-04T01:16:25.481Z,56.37
2022-10-04T01:19:22.856Z,56.87
2022-10-04T01:22:30.197Z,56.41
2022-10-04T01:24:58.978Z,57.25
2022-10-04T01:27:35.841Z,57.35
2022-10-04T01:30:12.570Z,58.90
2022-10-04T01:32:45.086Z,58.35
2022-10-04T01:35:19.544Z,58.24
2022-10-04T01:37:48.203Z,58.59
2022-10-04T01:40:17.618Z,58.57
2022-10-04T01:42:52.173Z,57.90
2022-10-04T01:45:41.601Z,58.20
2022-10-04T01:48:16.261Z,58.15
2022-10-04T01:50:46.747Z,58.88
2022-10-04T01:53:21.001Z,58.79
2022-10-04T01:55:54.221Z,58.53
2022-10-04T01:58:40.877Z,58.28
2022-10-04T02:01:18.443Z,58.04
2022-10-04T02:03:59.404Z,58.19
2022-10-04T02:06:32.833Z,58.49
2022-10-04T02:09:15.642Z,58.01
2022-10-04T02:11:46.277Z,57.42
2022-10-04T02:14:22.550Z,57.71
2022-10-04T02:16:54.534Z,58.64
2022-10-04T02:19:36.007Z,58.32
2022-10-04T02:22:07.643Z,58.80
2022-10-04T02:24:42.308Z,58.56
2022-10-04T02:27:12.388Z,58.83
2022-10-04T02:29:43.133Z,58.70
2022-10-04T02:32:33.189Z,58.93
2022-10-04T02:35:04.985Z,58.67
2022-10-04T02:37:34.697Z,58.52
2022-10-04T02:40:18.220Z,59.82
2022-10-04T02:42:54.549Z,60.06
2022-10-04T02:45:25.897Z,60.49
2022-10-04T02:47:58.782Z,61.59
2022-10-04T02:50:49.708Z,62.05
2022-10-04T02:53:30.865Z,62.95
2022-10-04T02:55:58.526Z,64.17
2022-10-04T02:58:26.818Z,61.84
2022-10-04T03:01:00.042Z,61.58
2022-10-04T03:03:29.527Z,62.21
2022-10-04T03:06:09.683Z,61.33
2022-10-04T03:08:54.924Z,61.22
2022-10-04T03:11:25.413Z,60.99
2022-10-04T03:13:57.239Z,61.37
2022-10-04T03:16:35.411Z,60.29
2022-10-04T03:19:04.280Z,60.80
2022-10-04T03:21:33.310Z,60.60
2022-10-04T03:24:01.637Z,60.92
2022-10-04T03:26:33.632Z,61.03
2022-10-04T03:29:01.294Z,60.60
2022-10-04T03:31:30.268Z,60.52
2022-10-04T03:34:00.125Z,60.42
2022-10-04T03:36:28.267Z,60.40
2022-10-04T03:38:57.855Z,61.01
2022-10-04T03:41:26.060Z,61.23
2022-10-04T03:43:56.012Z,60.74
2022-10-04T03:46:25.761Z,61.04
2022-10-04T03:48:55.547Z,61.86
2022-10-04T03:51:26.072Z,60.77
2022-10-04T03:53:56.948Z,61.72
2022-10-04T03:56:27.930Z,62.29
2022-10-04T03:58:56.563Z,61.12
2022-10-04T04:01:37.761Z,61.31
2022-10-04T04:04:24.222Z,61.13
2022-10-04T04:06:56.931Z,61.93
2022-10-04T04:09:41.106Z,61.04
2022-10-04T04:12:19.953Z,61.07
2022-10-04T04:14:51.549Z,61.10
2022-10-04T04:17:27.693Z,61.50
2022-10-04T04:20:03.424Z,61.96
2022-10-04T04:22:35.564Z,61.30
2022-10-04T04:25:09.261Z,61.12
2022-10-04T04:27:39.955Z,62.07
2022-10-04T04:30:12.403Z,62.02
2022-10-04T04:32:41.887Z,61.77
2022-10-04T04:35:22.017Z,61.10
2022-10-04T04:38:10.164Z,62.13
2022-10-04T04:40:39.182Z,61.15
2022-10-04T04:43:13.573Z,62.58
2022-10-04T04:45:43.749Z,61.70
2022-10-04T04:48:15.835Z,62.11
2022-10-04T04:50:54.060Z,61.99
2022-10-04T04:53:33.760Z,62.45
2022-10-04T04:56:05.033Z,62.36
2022-10-04T04:58:38.101Z,62.08
2022-10-04T05:01:14.005Z,62.13
2022-10-04T05:03:42.836Z,62.46
2022-10-04T05:06:28.921Z,62.37
2022-10-04T05:08:56.866Z,62.74
2022-10-04T05:11:29.600Z,61.94
2022-10-04T05:14:12.438Z,62.24
2022-10-04T05:16:50.425Z,62.30
2022-10-04T05:19:25.008Z,62.40
2022-10-04T05:21:57.318Z,62.24
2022-10-04T05:24:31.683Z,62.22
2022-10-04T05:27:10.173Z,62.26
2022-10-04T05:29:39.514Z,62.49
2022-10-04T05:32:31.267Z,62.41
2022-10-04T05:35:00.481Z,62.02
2022-10-04T05:37:55.323Z,62.19
2022-10-04T05:40:35.869Z,62.68
2022-10-04T05:43:23.059Z,63.23
2022-10-04T05:46:16.279Z,63.50
2022-10-04T05:48:46.024Z,62.13
2022-10-04T05:51:29.481Z,63.58
2022-10-04T05:54:00.777Z,63.81
2022-10-04T05:56:31.591Z,63.92
2022-10-04T05:59:15.721Z,63.80
2022-10-04T06:02:37.694Z,63.29
2022-10-04T06:05:28.173Z,63.12
2022-10-04T06:08:13.273Z,62.92
2022-10-04T06:11:00.507Z,64.42
2022-10-04T06:13:56.296Z,63.31
2022-10-04T06:16:43.166Z,63.44
2022-10-04T06:19:18.467Z,63.07
2022-10-04T06:21:46.474Z,62.69
2022-10-04T06:24:23.925Z,62.58
2022-10-04T06:26:59.778Z,62.71
2022-10-04T06:29:32.598Z,62.31
2022-10-04T06:32:09.033Z,61.68
2022-10-04T06:34:59.223Z,61.44
2022-10-04T06:37:36.487Z,61.47
2022-10-04T06:40:29.370Z,61.38
2022-10-04T06:43:34.338Z,61.98
2022-10-04T06:46:17.403Z,61.10
2022-10-04T06:49:09.875Z,60.92
2022-10-04T06:51:56.861Z,60.42
2022-10-04T06:54:53.370Z,60.50
2022-10-04T06:57:52.474Z,60.81
2022-10-04T07:00:31.123Z,60.42
2022-10-04T07:03:02.980Z,60.78
2022-10-04T07:05:41.902Z,60.97
2022-10-04T07:08:31.368Z,60.17
2022-10-04T07:11:33.178Z,60.28
2022-10-04T07:14:05.635Z,61.22
2022-10-04T07:17:05.531Z,62.09
2022-10-04T07:19:37.309Z,60.62
2022-10-04T07:22:12.208Z,59.96
2022-10-04T07:25:08.502Z,60.15
2022-10-04T07:27:45.243Z,59.77
2022-10-04T07:30:19.079Z,60.06
2022-10-04T07:32:52.011Z,60.70
2022-10-04T07:35:35.505Z,60.35
2022-10-04T07:38:13.606Z,59.80
2022-10-04T07:40:50.568Z,59.77
2022-10-04T07:43:27.633Z,59.53
2022-10-04T07:46:17.550Z,59.46
2022-10-04T07:48:49.210Z,58.73
2022-10-04T07:51:27.042Z,58.58
2022-10-04T07:54:21.889Z,58.69
2022-10-04T07:56:58.292Z,58.36
2022-10-04T07:59:48.479Z,57.71
2022-10-04T08:02:32.907Z,57.50
2022-10-04T08:05:20.650Z,57.73
2022-10-04T08:07:57.571Z,56.76
2022-10-04T08:10:28.871Z,55.97
2022-10-04T08:13:22.576Z,56.06
2022-10-04T08:19:52.362Z,53.92
2022-10-04T08:22:42.503Z,52.17
2022-10-04T08:25:23.629Z,51.52
2022-10-04T08:28:53.787Z,50.51
2022-10-04T08:32:10.895Z,51.37
2022-10-04T08:35:22.365Z,51.77
2022-10-04T08:38:36.194Z,52.15
2022-10-04T08:41:27.045Z,52.38
2022-10-04T08:44:44.826Z,51.36
2022-10-04T08:47:57.143Z,50.42
2022-10-04T08:51:01.544Z,51.23
2022-10-04T08:54:13.791Z,51.36
2022-10-04T08:57:10.174Z,50.94
2022-10-04T09:00:09.954Z,50.36
2022-10-04T09:02:45.018Z,49.55
2022-10-04T09:05:32.747Z,48.92
2022-10-04T09:08:19.134Z,48.06
2022-10-04T09:11:00.892Z,47.87
2022-10-04T09:13:47.600Z,47.34
2022-10-04T09:16:30.406Z,46.04
2022-10-04T09:19:07.539Z,46.52
2022-10-04T09:21:43.966Z,46.51
2022-10-04T09:24:48.337Z,47.12
2022-10-04T09:27:49.994Z,47.10
2022-10-04T09:30:47.215Z,46.76
2022-10-04T09:33:29.551Z,46.87
2022-10-04T09:36:25.421Z,46.65
2022-10-04T09:39:17.863Z,47.02
2022-10-04T09:42:03.552Z,46.23
2022-10-04T09:45:06.572Z,45.85
2022-10-04T09:47:51.825Z,45.97
2022-10-04T09:50:32.260Z,46.67
2022-10-04T09:53:15.416Z,46.67
2022-10-04T09:56:16.375Z,46.51
2022-10-04T09:59:05.809Z,47.41
2022-10-04T10:01:45.301Z,47.23
2022-10-04T10:04:42.180Z,47.49
2022-10-04T10:07:29.259Z,46.90
2022-10-04T10:10:41.748Z,46.68
2022-10-04T10:13:39.979Z,47.05
2022-10-04T10:16:33.343Z,47.06
2022-10-04T10:19:29.198Z,46.71
2022-10-04T10:22:34.009Z,46.39
2022-10-04T10:25:03.971Z,46.70
2022-10-04T10:27:46.344Z,46.58
2022-10-04T10:30:52.069Z,45.89
2022-10-04T10:33:39.841Z,46.75
2022-10-04T10:36:20.028Z,46.02
2022-10-04T10:38:57.132Z,46.51
2022-10-04T10:41:46.467Z,46.71
2022-10-04T10:44:24.087Z,45.79
2022-10-04T10:47:02.416Z,46.20
2022-10-04T10:49:42.164Z,45.36
2022-10-04T10:52:26.083Z,45.30
2022-10-04T10:55:08.013Z,46.06
2022-10-04T10:57:57.510Z,45.71
2022-10-04T11:05:53.344Z,44.94
2022-10-04T11:09:09.733Z,44.99
2022-10-04T11:12:23.501Z,44.09
2022-10-04T11:16:16.248Z,44.28
2022-10-04T11:22:58.624Z,42.00
2022-10-04T11:26:25.435Z,40.76
2022-10-04T11:29:48.899Z,41.83
2022-10-04T11:33:13.101Z,42.69
2022-10-04T11:35:57.876Z,42.40
2022-10-04T11:38:35.558Z,42.15
2022-10-04T11:42:34.796Z,41.43
2022-10-04T11:50:07.263Z,40.04
2022-10-04T11:53:04.378Z,39.80
2022-10-04T11:56:04.207Z,40.09
2022-10-04T11:58:38.352Z,41.00
2022-10-04T12:01:14.407Z,41.95
2022-10-04T12:04:03.584Z,41.77
2022-10-04T12:06:53.577Z,42.25
2022-10-04T12:10:01.075Z,42.59
2022-10-04T12:13:13.435Z,42.66
2022-10-04T12:15:49.459Z,41.49
2022-10-04T12:18:33.232Z,41.94
2022-10-04T12:21:07.212Z,41.95
2022-10-04T12:23:40.703Z,42.33
2022-10-04T12:26:32.460Z,43.35
2022-10-04T12:29:42.805Z,44.32
2022-10-04T12:32:20.199Z,45.41
2022-10-04T12:35:09.343Z,45.87
2022-10-04T12:38:07.168Z,45.30
2022-10-04T12:40:52.842Z,45.69
2022-10-04T12:43:33.627Z,47.08
2022-10-04T12:46:20.655Z,47.33
2022-10-04T12:49:09.115Z,46.37
2022-10-04T12:52:00.043Z,46.94
2022-10-04T12:54:43.629Z,49.14
2022-10-04T12:57:38.071Z,48.58
2022-10-04T13:00:19.418Z,48.32
2022-10-04T13:03:15.412Z,48.18
2022-10-04T13:05:46.736Z,47.08
2022-10-04T13:08:40.485Z,47.03
2022-10-04T13:11:58.138Z,46.30
2022-10-04T13:14:57.992Z,43.13
2022-10-04T13:17:35.780Z,42.37
2022-10-04T13:20:22.660Z,42.28
2022-10-04T13:23:18.774Z,41.29
2022-10-04T13:26:28.431Z,40.55
2022-10-04T13:29:02.938Z,40.21
2022-10-04T13:32:01.950Z,39.29
2022-10-04T13:34:41.217Z,38.89
2022-10-04T13:37:28.677Z,38.22
2022-10-04T13:40:15.101Z,38.84
2022-10-04T13:42:53.798Z,38.23
2022-10-04T13:45:48.519Z,38.38
2022-10-04T13:48:28.881Z,38.57
2022-10-04T13:51:03.619Z,38.07
2022-10-04T13:54:14.781Z,37.94
2022-10-04T13:57:20.242Z,39.62
2022-10-04T14:00:12.290Z,39.34
2022-10-04T14:03:02.254Z,38.66
2022-10-04T14:05:44.897Z,38.31
2022-10-04T14:08:19.363Z,39.01
2022-10-04T14:11:21.550Z,38.46
2022-10-04T14:14:14.820Z,40.33
2022-10-04T14:17:28.721Z,40.14
2022-10-04T14:20:24.297Z,38.28
2022-10-04T14:23:11.486Z,37.81
2022-10-04T14:25:55.121Z,36.84
2022-10-04T14:28:38.703Z,36.53
2022-10-04T14:31:21.631Z,36.90
2022-10-04T14:33:57.625Z,37.07
2022-10-04T14:36:46.793Z,36.85
2022-10-04T14:39:34.567Z,36.93
2022-10-04T14:45:04.876Z,35.65
2022-10-04T14:48:02.559Z,35.20
2022-10-04T14:51:17.055Z,35.82
2022-10-04T14:54:12.603Z,35.70
2022-10-04T14:56:43.977Z,35.47
2022-10-04T14:59:14.060Z,35.08
2022-10-04T15:02:09.704Z,35.47
2022-10-04T15:05:16.875Z,36.49
2022-10-04T15:07:48.302Z,36.29
2022-10-04T15:10:27.971Z,35.30
2022-10-04T15:13:24.737Z,34.04
2022-10-04T15:16:09.000Z,33.01
2022-10-04T15:18:39.584Z,31.73
2022-10-04T15:21:23.439Z,30.68
2022-10-04T15:23:55.735Z,30.08
2022-10-04T15:26:31.831Z,29.30
2022-10-04T15:29:12.639Z,28.40
2022-10-04T15:32:02.314Z,27.74
2022-10-04T15:34:47.527Z,27.45
2022-10-04T15:37:25.787Z,27.63
2022-10-04T15:40:08.678Z,28.67
2022-10-04T15:42:37.910Z,30.51
2022-10-04T15:45:17.923Z,31.21
2022-10-04T15:48:01.510Z,32.73
2022-10-04T15:50:51.371Z,34.61
2022-10-04T15:53:52.455Z,35.41
2022-10-04T15:56:42.993Z,36.00
2022-10-04T15:59:33.124Z,36.31
2022-10-04T16:02:32.086Z,37.63
2022-10-04T16:05:14.306Z,38.14
2022-10-04T16:08:07.566Z,38.63
2022-10-04T16:10:52.350Z,39.57
2022-10-04T16:13:33.523Z,40.93
2022-10-04T16:16:17.817Z,41.58
2022-10-04T16:18:59.896Z,41.90
2022-10-04T16:21:42.463Z,41.95
2022-10-04T16:24:19.902Z,43.21
2022-10-04T16:26:51.363Z,43.86
2022-10-04T16:29:24.991Z,43.59
2022-10-04T16:32:17.766Z,44.45
2022-10-04T16:34:53.775Z,44.74
2022-10-04T16:37:38.838Z,45.74
2022-10-04T16:40:12.198Z,45.33
2022-10-04T16:43:12.097Z,45.83
2022-10-04T16:45:50.667Z,46.19
2022-10-04T16:48:41.611Z,47.03
2022-10-04T16:51:13.383Z,46.59
2022-10-04T16:54:31.229Z,47.97
2022-10-04T16:57:00.787Z,47.17
2022-10-04T16:59:39.148Z,47.49
2022-10-04T17:02:33.419Z,47.70
2022-10-04T17:05:27.579Z,48.99
2022-10-04T17:08:17.094Z,49.91
2022-10-04T17:10:48.613Z,51.32
2022-10-04T17:13:27.366Z,52.11
2022-10-04T17:16:06.875Z,52.13
2022-10-04T17:19:21.964Z,52.12
2022-10-04T17:22:13.020Z,52.38
2022-10-04T17:24:59.584Z,51.71
2022-10-04T17:27:46.292Z,51.82
2022-10-04T17:30:43.591Z,51.90
2022-10-04T17:33:24.631Z,51.82
2022-10-04T17:36:07.011Z,51.89
2022-10-04T17:38:56.229Z,52.85
2022-10-04T17:41:52.410Z,53.48
2022-10-04T17:44:34.348Z,53.89
2022-10-04T17:47:54.082Z,54.07
2022-10-04T17:50:48.688Z,54.68
2022-10-04T17:53:39.970Z,55.33
2022-10-04T17:56:11.799Z,54.48
2022-10-04T17:58:51.652Z,54.66
2022-10-04T18:01:29.290Z,54.84
2022-10-04T18:04:09.023Z,54.30
2022-10-04T18:06:58.928Z,54.72
2022-10-04T18:09:32.354Z,55.24
2022-10-04T18:12:05.587Z,55.53
2022-10-04T18:14:52.417Z,55.86
2022-10-04T18:17:30.280Z,56.01
2022-10-04T18:20:26.443Z,55.63
2022-10-04T18:23:17.386Z,56.63
2022-10-04T18:25:46.570Z,54.87
2022-10-04T18:28:23.128Z,56.26
2022-10-04T18:30:59.525Z,56.09
2022-10-04T18:33:28.941Z,55.08
2022-10-04T18:36:01.547Z,54.59
2022-10-04T18:38:32.166Z,55.61
2022-10-04T18:41:17.962Z,55.61
2022-10-04T18:44:07.661Z,55.85
2022-10-04T18:46:41.586Z,56.37
2022-10-04T18:49:26.041Z,56.00
2022-10-04T18:52:28.004Z,55.83
2022-10-04T18:55:21.320Z,55.89
2022-10-04T18:58:20.217Z,55.97
2022-10-04T19:01:18.940Z,55.90
2022-10-04T19:03:59.042Z,56.72
2022-10-04T19:06:31.082Z,57.50
2022-10-04T19:09:26.620Z,57.79
2022-10-04T19:12:03.717Z,57.71
2022-10-04T19:15:07.423Z,57.94
2022-10-04T19:17:49.908Z,57.94
2022-10-04T19:20:24.310Z,56.35
2022-10-04T19:23:01.507Z,56.40
2022-10-04T19:25:36.559Z,56.80
2022-10-04T19:28:28.797Z,56.85
2022-10-04T19:31:32.459Z,56.71
2022-10-04T19:34:09.486Z,56.59
2022-10-04T19:36:39.693Z,56.91
2022-10-04T19:39:26.887Z,57.85
2022-10-04T19:42:14.941Z,57.59
2022-10-04T19:45:01.709Z,58.27
2022-10-04T19:47:50.670Z,59.25
2022-10-04T19:50:35.923Z,59.20
2022-10-04T19:53:31.203Z,59.25
2022-10-04T19:56:01.085Z,59.23
2022-10-04T19:58:41.880Z,60.25
2022-10-04T20:01:20.603Z,59.14
2022-10-04T20:04:11.298Z,58.08
2022-10-04T20:06:49.344Z,59.58
2022-10-04T20:09:30.446Z,58.91
2022-10-04T20:12:01.075Z,58.83
2022-10-04T20:14:33.226Z,59.54
2022-10-04T20:17:05.945Z,60.90
2022-10-04T20:19:39.931Z,59.63
2022-10-04T20:22:10.658Z,60.08
2022-10-04T20:24:42.483Z,60.15
2022-10-04T20:27:31.032Z,59.72
2022-10-04T20:30:05.868Z,59.31
2022-10-04T20:32:40.680Z,60.38
2022-10-04T20:35:54.363Z,59.91
2022-10-04T20:39:00.468Z,59.85
2022-10-04T20:41:29.596Z,60.71
2022-10-04T20:44:01.661Z,60.33
2022-10-04T20:46:38.242Z,60.49
2022-10-04T20:49:15.675Z,60.77
2022-10-04T20:51:48.909Z,60.92
2022-10-04T20:54:20.295Z,60.57
2022-10-04T20:56:50.471Z,60.28
2022-10-04T20:59:18.716Z,60.48
2022-10-04T21:02:06.920Z,60.63
2022-10-04T21:04:53.903Z,60.33
2022-10-04T21:07:25.944Z,59.87
2022-10-04T21:10:06.881Z,60.23
2022-10-04T21:12:36.455Z,59.88
2022-10-04T21:15:21.122Z,60.11
2022-10-04T21:18:09.697Z,60.53
2022-10-04T21:20:47.846Z,59.80
2022-10-04T21:23:33.765Z,59.83
2022-10-04T21:26:21.028Z,59.88
2022-10-04T21:28:52.976Z,58.98
2022-10-04T21:31:23.754Z,59.77
2022-10-04T21:33:52.725Z,59.25
2022-10-04T21:36:26.065Z,59.40
2022-10-04T21:38:54.707Z,60.25
2022-10-04T21:41:22.545Z,59.53
2022-10-04T21:43:54.986Z,59.51
2022-10-04T21:46:25.687Z,58.73
2022-10-04T21:48:54.049Z,59.51
2022-10-04T21:51:22.673Z,60.32
2022-10-04T21:53:50.371Z,59.63
2022-10-04T21:56:19.580Z,60.04
2022-10-04T21:58:47.553Z,60.65
2022-10-04T22:01:16.311Z,60.96
2022-10-04T22:03:54.420Z,61.39
2022-10-04T22:06:23.717Z,61.60
2022-10-04T22:08:53.215Z,60.21
2022-10-04T22:11:22.768Z,61.62
2022-10-04T22:13:55.013Z,61.08
2022-10-04T22:16:25.792Z,61.31
2022-10-04T22:18:57.900Z,62.47
2022-10-04T22:21:30.832Z,62.57
2022-10-04T22:24:05.858Z,62.77
2022-10-04T22:26:36.759Z,63.14
2022-10-04T22:29:14.018Z,63.69
2022-10-04T22:31:53.846Z,63.54
2022-10-04T22:34:29.362Z,62.59
2022-10-04T22:36:58.702Z,63.45
2022-10-04T22:39:32.728Z,62.90
2022-10-04T22:42:03.567Z,64.12
2022-10-04T22:44:36.530Z,63.96
2022-10-04T22:47:14.635Z,63.55
2022-10-04T22:49:53.129Z,63.50
2022-10-04T22:52:26.671Z,62.99
2022-10-04T22:55:00.776Z,62.89
2022-10-04T22:57:31.215Z,62.05
2022-10-04T23:00:02.279Z,63.68
2022-10-04T23:02:36.367Z,64.04
2022-10-04T23:05:14.233Z,64.25
2022-10-04T23:07:52.929Z,63.99
2022-10-04T23:10:36.562Z,63.90
2022-10-04T23:13:09.805Z,64.28
2022-10-04T23:15:43.854Z,63.51
2022-10-04T23:18:17.029Z,62.45
2022-10-04T23:20:51.998Z,62.82
2022-10-04T23:23:22.600Z,62.58
2022-10-04T23:25:54.767Z,63.31
2022-10-04T23:28:27.107Z,63.61
2022-10-04T23:31:26.114Z,64.67
2022-10-04T23:33:58.641Z,64.34
2022-10-04T23:36:31.228Z,63.49
2022-10-04T23:39:02.237Z,64.10
2022-10-04T23:41:35.774Z,63.52
2022-10-04T23:44:13.849Z,62.80
2022-10-04T23:46:45.870Z,63.53
2022-10-04T23:49:17.380Z,62.86
2022-10-04T23:52:04.849Z,62.60
2022-10-04T23:54:34.462Z,64.26
2022-10-04T23:57:03.812Z,62.81
2022-10-04T23:59:33.419Z,62.09
